Time;durP1;ratioP1;P1;durP2;ratioP2;P2;SDS_P1;SDS_P2;PMS_P1;PMS_P2;Temp;Humidity;BMP_temperature;BMP_pressure;BME280_temperature;BME280_humidity;BME280_pressure;Samples;Min_cycle;Max_cycle;Signal;HPM_P1;HPM_P2
2022/03/12 00:00:30;;;;;;;31.92;11.88;;;;;;;-8.41;100.00;91449.59;5010829;28;20558;-62
2022/03/12 00:02:56;;;;;;;10.32;4.32;;;;;;;-8.51;100.00;91442.16;5010904;28;20037;-61
2022/03/12 00:05:23;;;;;;;23.08;9.48;;;;;;;-8.55;100.00;91451.22;5010775;28;20076;-61
2022/03/12 00:07:51;;;;;;;14.20;8.27;;;;;;;-8.63;100.00;91444.41;5011111;28;20037;-61
2022/03/12 00:10:18;;;;;;;30.00;9.40;;;;;;;-8.64;100.00;91447.19;5010576;28;20041;-61
2022/03/12 00:12:43;;;;;;;21.70;9.50;;;;;;;-8.55;100.00;91446.06;5013905;28;20045;-62
2022/03/12 00:15:12;;;;;;;22.98;11.40;;;;;;;-8.59;100.00;91450.00;5014762;28;20030;-61
2022/03/12 00:17:39;;;;;;;20.95;8.18;;;;;;;-8.55;100.00;91446.88;5014603;28;20025;-62
2022/03/12 00:20:09;;;;;;;34.38;13.05;;;;;;;-8.53;100.00;91449.25;5014514;28;20028;-61
2022/03/12 00:22:37;;;;;;;34.83;14.45;;;;;;;-8.54;100.00;91448.47;5014402;28;20030;-62
2022/03/12 00:25:10;;;;;;;34.90;13.68;;;;;;;-8.57;100.00;91443.69;5014418;28;20404;-61
2022/03/12 00:27:41;;;;;;;32.13;13.63;;;;;;;-8.65;100.00;91436.06;5014409;28;20135;-61
2022/03/12 00:30:07;;;;;;;31.02;13.05;;;;;;;-8.91;100.00;91423.66;5014369;28;20026;-61
2022/03/12 00:32:36;;;;;;;21.20;10.88;;;;;;;-8.77;100.00;91443.47;5014146;28;20492;-61
2022/03/12 00:35:06;;;;;;;22.80;10.25;;;;;;;-8.82;100.00;91437.28;5014214;28;20152;-61
2022/03/12 00:37:32;;;;;;;12.00;6.20;;;;;;;-8.74;100.00;91437.16;5014236;28;20136;-61
2022/03/12 00:39:57;;;;;;;17.85;8.57;;;;;;;-8.73;100.00;91432.78;5014059;28;20033;-61
2022/03/12 00:42:23;;;;;;;15.48;7.95;;;;;;;-8.67;100.00;91437.22;5014056;28;20040;-61
2022/03/12 00:44:48;;;;;;;16.02;8.50;;;;;;;-8.64;100.00;91431.72;5014042;28;20116;-62
2022/03/12 00:47:14;;;;;;;16.45;8.48;;;;;;;-8.61;100.00;91434.72;5014069;28;20100;-62
2022/03/12 00:49:39;;;;;;;13.88;6.93;;;;;;;-8.59;100.00;91434.53;5013973;28;20029;-62
2022/03/12 00:52:05;;;;;;;21.52;8.23;;;;;;;-8.57;100.00;91440.28;5013827;28;20419;-62
2022/03/12 00:54:31;;;;;;;17.08;8.40;;;;;;;-8.48;100.00;91434.84;5013883;28;20037;-62
2022/03/12 00:56:57;;;;;;;16.75;9.00;;;;;;;-8.54;100.00;91433.00;5013903;28;20038;-62
2022/03/12 00:59:22;;;;;;;8.60;4.68;;;;;;;-8.49;100.00;91440.19;4996074;28;20026;-62
2022/03/12 01:01:48;;;;;;;13.35;7.47;;;;;;;-8.49;100.00;91429.88;5013772;28;20030;-62
2022/03/12 01:04:13;;;;;;;20.50;9.20;;;;;;;-8.67;100.00;91434.66;5013643;28;20026;-61
2022/03/12 01:06:39;;;;;;;12.18;7.07;;;;;;;-8.62;100.00;91440.06;5013669;28;20041;-62
2022/03/12 01:09:04;;;;;;;15.13;8.75;;;;;;;-8.52;100.00;91437.97;5013667;28;20101;-62
2022/03/12 01:11:30;;;;;;;17.42;8.00;;;;;;;-8.43;100.00;91431.72;5013590;28;20069;-61
2022/03/12 01:13:56;;;;;;;15.63;8.07;;;;;;;-8.61;100.00;91428.75;5013421;28;20045;-62
2022/03/12 01:16:21;;;;;;;19.85;9.88;;;;;;;-8.47;100.00;91428.72;5013451;28;20057;-62
2022/03/12 01:18:47;;;;;;;11.25;6.53;;;;;;;-8.43;100.00;91430.91;5013359;28;20033;-62
2022/03/12 01:21:18;;;;;;;12.38;7.55;;;;;;;-8.45;100.00;91433.69;5162423;23;20081;-62
2022/03/12 01:23:50;;;;;;;18.45;10.98;;;;;;;-8.30;100.00;91436.19;5012434;28;20510;-62
2022/03/12 01:26:21;;;;;;;18.20;10.70;;;;;;;-8.28;100.00;91441.94;5013493;28;20030;-62
2022/03/12 01:28:47;;;;;;;15.07;7.63;;;;;;;-8.36;100.00;91442.91;5013460;28;20279;-62
2022/03/12 01:31:13;;;;;;;16.35;7.85;;;;;;;-8.21;100.00;91440.22;5013113;28;20029;-62
2022/03/12 01:33:39;;;;;;;10.15;5.55;;;;;;;-8.18;100.00;91432.94;5013296;28;20029;-62
2022/03/12 01:36:06;;;;;;;14.23;7.07;;;;;;;-8.15;98.21;91434.34;5012016;28;20021;-64
2022/03/12 01:38:34;;;;;;;10.90;6.78;;;;;;;-8.29;97.26;91435.19;5011513;28;20470;-62
2022/03/12 01:41:06;;;;;;;11.68;5.70;;;;;;;-8.24;96.91;91438.81;5013022;28;20030;-62
2022/03/12 01:43:35;;;;;;;10.30;5.68;;;;;;;-8.26;96.03;91448.53;5013072;28;20062;-62
2022/03/12 01:46:01;;;;;;;13.35;6.20;;;;;;;-8.37;96.11;91437.91;5012990;28;20034;-63
2022/03/12 01:48:28;;;;;;;10.55;6.30;;;;;;;-8.45;96.46;91436.25;5012980;28;20076;-63
2022/03/12 01:50:54;;;;;;;10.93;6.10;;;;;;;-8.51;98.13;91452.47;5012771;28;20034;-62
2022/03/12 01:53:20;;;;;;;11.07;6.38;;;;;;;-8.58;100.00;91444.66;5012955;28;20072;-62
2022/03/12 01:55:46;;;;;;;11.73;5.80;;;;;;;-8.42;100.00;91440.25;5012879;28;20506;-62
2022/03/12 01:58:12;;;;;;;11.70;5.93;;;;;;;-8.25;100.00;91452.69;5012721;28;20030;-63
2022/03/12 02:00:43;;;;;;;12.13;6.28;;;;;;;-8.11;100.00;91452.81;5012621;28;20392;-62
2022/03/12 02:03:10;;;;;;;15.57;6.65;;;;;;;-8.00;100.00;91442.81;5012665;28;20647;-63
2022/03/12 02:05:36;;;;;;;12.90;7.00;;;;;;;-8.23;100.00;91445.56;5012679;28;20072;-62
2022/03/12 02:08:02;;;;;;;11.93;6.07;;;;;;;-8.12;100.00;91446.06;5012592;28;20492;-62
2022/03/12 02:10:28;;;;;;;18.90;6.88;;;;;;;-8.08;100.00;91442.13;5012425;28;20061;-62
2022/03/12 02:12:53;;;;;;;13.60;7.38;;;;;;;-8.15;100.00;91442.06;5012523;28;20073;-63
2022/03/12 02:15:20;;;;;;;14.70;7.88;;;;;;;-8.19;100.00;91451.97;5012539;28;20029;-62
2022/03/12 02:17:46;;;;;;;12.10;7.03;;;;;;;-8.09;100.00;91448.28;5012303;28;20030;-62
2022/03/12 02:20:13;;;;;;;12.45;7.35;;;;;;;-8.29;100.00;91446.31;5011991;28;20014;-64
2022/03/12 02:22:39;;;;;;;13.13;7.15;;;;;;;-8.49;100.00;91456.47;5012337;28;20029;-62
2022/03/12 02:25:05;;;;;;;13.70;7.57;;;;;;;-8.77;100.00;91455.56;5012386;28;20025;-62
2022/03/12 02:27:30;;;;;;;16.30;8.15;;;;;;;-8.67;100.00;91457.88;5012234;28;20021;-62
2022/03/12 02:29:59;;;;;;;14.00;7.35;;;;;;;-8.65;100.00;91458.47;5012380;28;20506;-62
2022/03/12 02:32:25;;;;;;;12.82;6.93;;;;;;;-8.53;100.00;91457.81;5012201;28;20112;-62
2022/03/12 02:34:53;;;;;;;12.93;6.90;;;;;;;-8.42;100.00;91461.69;5011056;28;20423;-62
2022/03/12 02:37:32;;;;;;;13.75;8.07;;;;;;;-8.41;100.00;91452.97;5012110;28;20029;-62
2022/03/12 02:40:03;;;;;;;11.65;6.93;;;;;;;-8.35;100.00;91456.63;5011903;28;20408;-72
2022/03/12 02:42:29;;;;;;;13.00;7.10;;;;;;;-8.35;100.00;91456.63;5012021;28;20026;-62
2022/03/12 02:44:54;;;;;;;17.60;7.93;;;;;;;-8.44;100.00;91453.34;5011956;28;20506;-62
2022/03/12 02:47:25;;;;;;;12.50;7.15;;;;;;;-8.39;100.00;91455.34;5011930;28;20034;-62
2022/03/12 02:49:57;;;;;;;14.10;6.95;;;;;;;-8.56;100.00;91453.00;4994210;28;20034;-62
2022/03/12 02:52:27;;;;;;;11.80;5.72;;;;;;;-8.63;100.00;91449.56;5011898;28;20058;-62
2022/03/12 02:54:55;;;;;;;13.07;6.72;;;;;;;-8.58;100.00;91443.88;5011709;28;20029;-62
2022/03/12 02:57:26;;;;;;;10.13;6.15;;;;;;;-8.54;100.00;91450.25;5011731;28;20060;-62
2022/03/12 02:59:53;;;;;;;10.70;5.65;;;;;;;-8.72;100.00;91453.22;5011990;28;20030;-62
2022/03/12 03:02:25;;;;;;;14.40;6.97;;;;;;;-8.93;100.00;91458.34;5011814;28;20045;-62
2022/03/12 03:04:51;;;;;;;11.50;5.07;;;;;;;-8.81;100.00;91462.06;5011674;28;20030;-61
2022/03/12 03:07:17;;;;;;;10.52;5.88;;;;;;;-8.79;100.00;91453.16;5011651;28;20022;-62
2022/03/12 03:09:43;;;;;;;8.85;5.38;;;;;;;-8.88;100.00;91467.13;5011783;28;20560;-61
2022/03/12 03:12:11;;;;;;;13.10;7.05;;;;;;;-8.88;100.00;91467.13;5011395;28;20033;-62
2022/03/12 03:14:47;;;;;;;12.23;6.13;;;;;;;-8.86;100.00;91459.22;5011476;28;20030;-62
2022/03/12 03:17:13;;;;;;;12.32;5.55;;;;;;;-8.66;100.00;91464.63;5011444;28;20018;-62
2022/03/12 03:19:40;;;;;;;11.40;5.43;;;;;;;-8.74;100.00;91446.66;5011389;28;20025;-62
2022/03/12 03:22:07;;;;;;;9.48;5.00;;;;;;;-8.62;100.00;91473.59;5011136;28;20046;-62
2022/03/12 03:24:33;;;;;;;11.48;6.35;;;;;;;-8.66;100.00;91473.16;5011364;28;20141;-62
2022/03/12 03:27:00;;;;;;;11.32;5.60;;;;;;;-8.57;100.00;91469.47;5011342;28;20041;-62
2022/03/12 03:29:31;;;;;;;8.60;5.90;;;;;;;-8.63;100.00;91474.56;5011356;28;20033;-62
2022/03/12 03:32:01;;;;;;;9.98;5.22;;;;;;;-8.69;100.00;91467.53;5011340;28;20138;-61
2022/03/12 03:34:27;;;;;;;13.30;7.50;;;;;;;-8.76;100.00;91470.03;5011214;28;20041;-62
2022/03/12 03:36:52;;;;;;;10.45;5.57;;;;;;;-8.87;100.00;91483.41;5011196;28;20491;-61
2022/03/12 03:39:18;;;;;;;15.77;7.57;;;;;;;-8.91;100.00;91477.81;5011146;28;20028;-62
2022/03/12 03:41:44;;;;;;;17.67;8.32;;;;;;;-8.91;100.00;91477.81;5011019;28;20042;-61
2022/03/12 03:44:11;;;;;;;15.75;8.88;;;;;;;-8.80;100.00;91476.56;5011076;28;20484;-62
2022/03/12 03:46:36;;;;;;;23.10;10.80;;;;;;;-8.86;100.00;91480.63;5014660;28;20041;-62
2022/03/12 03:49:04;;;;;;;28.58;12.63;;;;;;;-8.73;100.00;91480.00;5017499;28;20025;-62
2022/03/12 03:51:30;;;;;;;35.65;14.25;;;;;;;-8.73;100.00;91477.41;5017713;28;20072;-62
2022/03/12 03:53:56;;;;;;;18.88;8.57;;;;;;;-8.63;100.00;91474.56;5017590;28;20502;-62
2022/03/12 03:56:21;;;;;;;27.77;11.35;;;;;;;-8.47;100.00;91477.72;5017463;28;20030;-62
2022/03/12 03:58:47;;;;;;;26.13;12.50;;;;;;;-8.51;100.00;91476.50;5017362;28;20483;-61
2022/03/12 04:01:22;;;;;;;23.23;10.68;;;;;;;-8.68;100.00;91482.81;5017386;28;20030;-62
2022/03/12 04:03:48;;;;;;;21.65;10.70;;;;;;;-8.59;100.00;91475.78;5017581;28;20033;-61
2022/03/12 04:06:21;;;;;;;26.70;11.93;;;;;;;-8.62;100.00;91478.75;5017360;28;20037;-61
2022/03/12 04:08:48;;;;;;;26.40;12.82;;;;;;;-8.69;100.00;91476.06;5017339;28;20026;-61
2022/03/12 04:11:17;;;;;;;22.45;11.52;;;;;;;-8.63;100.00;91490.03;5017268;28;20097;-61
2022/03/12 04:13:43;;;;;;;18.63;9.52;;;;;;;-8.47;100.00;91490.63;5017371;28;20029;-62
2022/03/12 04:16:09;;;;;;;45.40;20.15;;;;;;;-8.42;100.00;91497.81;5017178;28;20045;-61
2022/03/12 04:18:36;;;;;;;29.55;15.65;;;;;;;-8.35;100.00;91500.47;5017190;28;20093;-62
2022/03/12 04:21:04;;;;;;;21.20;13.00;;;;;;;-8.27;100.00;91501.13;5017036;28;20197;-62
2022/03/12 04:23:29;;;;;;;18.80;10.82;;;;;;;-8.32;100.00;91507.81;5017245;28;20049;-61
2022/03/12 04:25:57;;;;;;;18.88;10.15;;;;;;;-8.38;100.00;91493.88;5017172;28;20487;-61
2022/03/12 04:28:24;;;;;;;16.30;8.55;;;;;;;-8.32;100.00;91502.66;5017105;28;20503;-62
2022/03/12 04:30:50;;;;;;;16.27;7.63;;;;;;;-8.39;100.00;91506.97;5017453;28;20407;-62
2022/03/12 04:33:19;;;;;;;18.15;8.23;;;;;;;-8.46;100.00;91504.31;4999549;28;20041;-62
2022/03/12 04:35:46;;;;;;;24.70;11.05;;;;;;;-8.51;100.00;91512.59;5017362;28;20048;-62
2022/03/12 04:38:13;;;;;;;37.33;16.60;;;;;;;-8.38;100.00;91514.50;5017045;28;20026;-62
2022/03/12 04:40:40;;;;;;;24.35;12.23;;;;;;;-8.28;100.00;91515.00;5017014;28;20034;-62
2022/03/12 04:43:07;;;;;;;24.30;13.65;;;;;;;-8.37;100.00;91512.72;5017153;28;20026;-62
2022/03/12 04:45:34;;;;;;;18.23;10.18;;;;;;;-8.28;100.00;91517.59;5017091;28;20051;-61
2022/03/12 04:47:59;;;;;;;25.75;12.93;;;;;;;-8.32;100.00;91513.78;5017140;28;20109;-62
2022/03/12 04:50:25;;;;;;;31.60;13.82;;;;;;;-8.36;100.00;91514.31;5017076;28;20115;-62
2022/03/12 04:52:53;;;;;;;23.88;11.90;;;;;;;-8.52;100.00;91523.91;5017020;28;20511;-62
2022/03/12 04:55:21;;;;;;;33.08;15.00;;;;;;;-8.41;100.00;91530.34;5016934;28;20033;-62
2022/03/12 04:57:48;;;;;;;27.63;13.20;;;;;;;-8.51;100.00;91522.13;5016395;28;20113;-62
2022/03/12 05:00:28;;;;;;;35.30;15.70;;;;;;;-8.58;100.00;91524.59;5013704;28;20472;-62
2022/03/12 05:02:54;;;;;;;21.90;11.45;;;;;;;-8.51;100.00;91529.88;5013885;28;20130;-62
2022/03/12 05:05:21;;;;;;;25.95;12.95;;;;;;;-8.61;100.00;91531.91;5014128;28;20069;-61
2022/03/12 05:07:46;;;;;;;23.85;11.50;;;;;;;-8.49;100.00;91533.06;5013800;28;20049;-62
2022/03/12 05:10:13;;;;;;;40.88;18.63;;;;;;;-8.28;100.00;91527.09;5013624;28;20053;-62
2022/03/12 05:12:43;;;;;;;25.13;13.07;;;;;;;-8.24;100.00;91521.38;5013724;28;20037;-62
2022/03/12 05:15:14;;;;;;;38.63;15.13;;;;;;;-8.15;100.00;91519.50;5013646;28;20117;-62
2022/03/12 05:17:47;;;;;;;23.20;11.98;;;;;;;-8.19;100.00;91523.44;5013645;28;20022;-62
2022/03/12 05:20:19;;;;;;;32.42;13.38;;;;;;;-8.07;100.00;91516.00;4995471;28;20438;-63
2022/03/12 05:22:45;;;;;;;19.67;8.95;;;;;;;-8.17;100.00;91521.47;5013542;28;20461;-62
2022/03/12 05:25:11;;;;;;;24.08;8.98;;;;;;;-7.98;100.00;91520.88;5013821;28;20563;-62
2022/03/12 05:27:37;;;;;;;18.77;9.00;;;;;;;-7.91;100.00;91526.88;5013384;28;20029;-62
2022/03/12 05:30:04;;;;;;;40.83;19.13;;;;;;;-7.54;100.00;91527.63;5013250;28;20407;-62
2022/03/12 05:32:29;;;;;;;52.72;25.63;;;;;;;-7.52;100.00;91520.47;5013259;28;20031;-62
2022/03/12 05:34:55;;;;;;;55.10;24.98;;;;;;;-7.37;100.00;91525.56;5013137;28;20042;-62
2022/03/12 05:37:21;;;;;;;38.22;18.77;;;;;;;-7.45;100.00;91536.03;5013379;28;20037;-62
2022/03/12 05:39:49;;;;;;;30.65;14.88;;;;;;;-7.42;100.00;91540.81;5012926;28;20030;-62
2022/03/12 05:42:18;;;;;;;18.63;11.52;;;;;;;-7.23;100.00;91542.78;5012567;28;20033;-62
2022/03/12 05:44:44;;;;;;;14.70;8.13;;;;;;;-7.52;100.00;91545.53;5012957;28;20038;-61
2022/03/12 05:47:10;;;;;;;19.67;7.97;;;;;;;-6.67;100.00;91546.09;5013037;28;20029;-62
2022/03/12 05:49:36;;;;;;;10.82;6.53;;;;;;;-6.44;100.00;91558.78;5012923;28;20026;-62
2022/03/12 05:52:02;;;;;;;16.85;8.07;;;;;;;-6.71;100.00;91567.38;5012806;28;20036;-62
2022/03/12 05:54:28;;;;;;;20.00;11.23;;;;;;;-6.54;99.65;91571.25;5012840;28;20026;-62
2022/03/12 05:56:54;;;;;;;22.50;11.57;;;;;;;-6.05;98.32;91575.47;5012785;28;20038;-62
2022/03/12 05:59:20;;;;;;;27.63;14.65;;;;;;;-6.12;97.31;91548.75;5012673;28;20402;-62
2022/03/12 06:01:45;;;;;;;38.17;16.20;;;;;;;-6.45;97.93;91579.69;5012673;28;20542;-62
2022/03/12 06:04:11;;;;;;;39.85;19.95;;;;;;;-6.37;99.68;91588.06;5012686;28;20053;-62
2022/03/12 06:06:38;;;;;;;27.10;14.88;;;;;;;-6.68;100.00;91585.09;5012616;28;20458;-62
2022/03/12 06:09:07;;;;;;;57.08;26.27;;;;;;;-6.87;100.00;91594.34;5012192;28;20034;-62
2022/03/12 06:11:34;;;;;;;44.15;20.08;;;;;;;-6.59;100.00;91594.34;5012587;28;20026;-62
2022/03/12 06:14:00;;;;;;;28.73;15.00;;;;;;;-6.38;100.00;91596.84;5012732;28;20029;-62
2022/03/12 06:16:27;;;;;;;38.67;18.45;;;;;;;-6.12;100.00;91595.38;5012739;28;20061;-62
2022/03/12 06:18:53;;;;;;;33.95;17.40;;;;;;;-5.91;100.00;91590.06;5012465;28;20033;-62
2022/03/12 06:21:20;;;;;;;27.67;13.85;;;;;;;-5.67;100.00;91599.09;5012249;28;20137;-62
2022/03/12 06:23:46;;;;;;;32.55;16.65;;;;;;;-5.00;97.91;91592.22;4994929;28;20030;-62
2022/03/12 06:26:14;;;;;;;48.88;26.25;;;;;;;-2.04;85.65;91601.34;5012400;28;20033;-62
2022/03/12 06:28:44;;;;;;;63.22;33.50;;;;;;;0.53;68.31;91601.94;5012293;28;20040;-62
2022/03/12 06:31:14;;;;;;;57.92;28.23;;;;;;;3.66;57.82;91598.06;5012242;28;20018;-62
2022/03/12 06:33:42;;;;;;;44.92;21.48;;;;;;;5.86;48.71;91608.59;5009679;28;20088;-67
2022/03/12 06:36:08;;;;;;;54.30;29.88;;;;;;;4.44;49.27;91599.16;4991724;28;20030;-62
2022/03/12 06:38:34;;;;;;;43.60;22.70;;;;;;;5.89;47.66;91603.59;4992466;28;20121;-62
2022/03/12 06:41:01;;;;;;;23.70;13.13;;;;;;;7.49;45.35;91609.88;4991329;28;20476;-64
2022/03/12 06:43:28;;;;;;;12.00;8.68;;;;;;;5.23;44.65;91611.38;4992191;28;20026;-63
2022/03/12 06:45:59;;;;;;;15.02;8.45;;;;;;;2.08;52.38;91619.84;4992137;28;20091;-63
2022/03/12 06:48:25;;;;;;;18.42;8.82;;;;;;;1.49;55.34;91622.06;4992412;28;20140;-63
2022/03/12 06:50:51;;;;;;;13.95;8.25;;;;;;;3.38;53.12;91627.25;4992237;28;20022;-65
2022/03/12 06:53:17;;;;;;;15.07;9.52;;;;;;;2.09;52.36;91626.69;4991987;28;20037;-63
2022/03/12 06:55:44;;;;;;;19.77;10.13;;;;;;;-0.23;57.76;91631.69;4991917;28;20034;-63
2022/03/12 06:58:09;;;;;;;29.83;15.68;;;;;;;-2.09;64.05;91642.91;4992081;28;20042;-63
2022/03/12 07:00:35;;;;;;;26.50;14.90;;;;;;;-2.76;69.19;91640.84;4992040;28;20438;-63
2022/03/12 07:03:01;;;;;;;41.45;18.02;;;;;;;-3.26;73.23;91646.94;4991954;28;20033;-63
2022/03/12 07:05:27;;;;;;;16.58;9.77;;;;;;;-2.94;72.86;91651.16;4991322;28;20437;-63
2022/03/12 07:07:53;;;;;;;22.25;14.18;;;;;;;-3.32;75.47;91631.16;4991594;28;20113;-63
2022/03/12 07:10:19;;;;;;;17.25;10.20;;;;;;;-3.12;77.04;91645.88;4991555;28;20042;-63
2022/03/12 07:12:49;;;;;;;19.48;10.73;;;;;;;-2.74;74.50;91641.41;4991688;28;20038;-67
2022/03/12 07:15:17;;;;;;;16.80;8.32;;;;;;;-2.81;73.29;91643.28;4991811;28;20038;-63
2022/03/12 07:17:43;;;;;;;20.10;11.65;;;;;;;-1.58;71.17;91646.00;4991690;28;20089;-65
2022/03/12 07:20:13;;;;;;;15.00;9.75;;;;;;;-1.77;69.59;91646.97;4990774;28;20117;-63
2022/03/12 07:22:39;;;;;;;18.48;11.52;;;;;;;-1.99;70.59;91657.03;4991151;28;20038;-63
2022/03/12 07:25:07;;;;;;;19.08;10.65;;;;;;;-2.74;72.76;91657.03;4991744;28;20042;-63
2022/03/12 07:27:33;;;;;;;32.72;18.02;;;;;;;-2.98;73.46;91663.03;4998651;28;20033;-62
2022/03/12 07:30:00;;;;;;;24.30;14.23;;;;;;;-1.50;71.59;91657.94;5010211;28;20034;-62
2022/03/12 07:32:28;;;;;;;12.63;7.60;;;;;;;-1.85;66.22;91668.94;5010607;28;20124;-62
2022/03/12 07:34:54;;;;;;;13.98;7.78;;;;;;;-2.46;68.19;91661.06;5010120;28;20128;-62
2022/03/12 07:37:21;;;;;;;14.05;7.90;;;;;;;-2.80;70.67;91662.31;5010655;28;20041;-61
2022/03/12 07:39:47;;;;;;;22.38;11.57;;;;;;;-2.51;71.72;91679.13;5010257;28;20116;-62
2022/03/12 07:42:13;;;;;;;16.90;11.00;;;;;;;-2.16;69.41;91682.06;5010102;28;20033;-62
2022/03/12 07:44:39;;;;;;;18.83;10.98;;;;;;;-1.54;69.08;91678.44;5010228;28;20045;-62
2022/03/12 07:47:05;;;;;;;21.67;11.35;;;;;;;-1.78;66.12;91684.50;5010066;28;20574;-62
2022/03/12 07:49:31;;;;;;;18.25;10.35;;;;;;;-1.15;64.29;91678.19;4992454;28;20415;-62
2022/03/12 07:51:57;;;;;;;18.40;11.48;;;;;;;-1.45;66.69;91675.53;5010600;28;20038;-61
2022/03/12 07:54:23;;;;;;;24.63;14.40;;;;;;;-1.43;66.07;91671.69;5010098;28;20037;-62
2022/03/12 07:56:49;;;;;;;22.15;12.98;;;;;;;-2.23;68.34;91682.09;5010083;28;20061;-62
2022/03/12 07:59:15;;;;;;;21.77;11.75;;;;;;;-2.69;70.91;91681.66;5009801;28;20041;-61
2022/03/12 08:01:41;;;;;;;20.95;11.88;;;;;;;-2.49;72.23;91683.13;5009620;28;20403;-62
2022/03/12 08:04:07;;;;;;;22.77;12.15;;;;;;;-0.36;67.38;91683.16;5009386;28;20110;-61
2022/03/12 08:06:34;;;;;;;24.23;13.93;;;;;;;6.50;50.04;91666.25;5009695;28;20037;-61
2022/03/12 08:09:00;;;;;;;19.30;11.00;;;;;;;9.97;41.59;91670.78;5010130;28;20475;-62
2022/03/12 08:11:28;;;;;;;26.13;15.32;;;;;;;12.00;38.56;91672.75;4992258;28;20405;-62
2022/03/12 08:14:04;;;;;;;25.23;16.42;;;;;;;12.81;34.83;91678.94;5009685;28;20041;-61
2022/03/12 08:16:32;;;;;;;20.70;14.05;;;;;;;9.55;37.87;91678.47;5009754;28;20484;-62
2022/03/12 08:18:58;;;;;;;23.30;14.50;;;;;;;5.52;42.64;91682.16;5009337;28;20042;-62
2022/03/12 08:21:24;;;;;;;18.70;10.77;;;;;;;2.75;46.96;91679.34;5009688;28;20048;-61
2022/03/12 08:23:50;;;;;;;18.80;10.10;;;;;;;1.47;49.96;91675.78;5009539;28;20026;-62
2022/03/12 08:26:16;;;;;;;17.95;11.57;;;;;;;-0.72;56.51;91678.84;5010028;28;20033;-60
2022/03/12 08:28:42;;;;;;;21.52;13.07;;;;;;;-1.45;64.25;91689.38;5009641;28;20510;-61
2022/03/12 08:31:09;;;;;;;29.98;15.60;;;;;;;-1.96;68.20;91698.31;5009756;28;20069;-60
2022/03/12 08:33:36;;;;;;;27.42;13.30;;;;;;;-2.57;72.11;91691.19;5012242;28;20488;-61
2022/03/12 08:36:04;;;;;;;80.82;30.65;;;;;;;-3.24;76.49;91694.38;5013268;28;20131;-60
2022/03/12 08:38:30;;;;;;;72.78;26.52;;;;;;;-3.84;78.64;91691.16;5013494;28;20096;-61
2022/03/12 08:40:55;;;;;;;33.53;14.48;;;;;;;-3.97;77.67;91702.38;5012731;28;20025;-60
2022/03/12 08:43:21;;;;;;;21.42;10.75;;;;;;;-4.15;77.41;91697.00;5013372;28;20048;-61
2022/03/12 08:45:48;;;;;;;11.80;6.95;;;;;;;-3.58;71.62;91693.69;5013380;28;20124;-61
2022/03/12 08:48:15;;;;;;;21.50;10.02;;;;;;;-1.78;65.74;91691.53;5012678;28;20088;-62
2022/03/12 08:50:42;;;;;;;13.98;8.05;;;;;;;0.95;56.07;91688.94;5013261;28;20050;-61
2022/03/12 08:53:08;;;;;;;11.55;8.35;;;;;;;4.80;46.84;91675.78;5013148;28;20038;-61
2022/03/12 08:55:33;;;;;;;13.48;8.38;;;;;;;9.54;38.68;91686.72;5012674;28;20040;-61
2022/03/12 08:57:58;;;;;;;16.77;10.10;;;;;;;9.66;36.83;91687.13;5012926;28;20026;-62
2022/03/12 09:00:24;;;;;;;12.98;8.93;;;;;;;11.23;34.63;91693.91;5012518;28;20034;-62
2022/03/12 09:02:50;;;;;;;13.43;8.32;;;;;;;8.40;36.43;91692.56;5012482;28;20026;-61
2022/03/12 09:05:16;;;;;;;12.02;7.57;;;;;;;10.65;35.73;91692.44;5010116;28;20450;-61
2022/03/12 09:07:44;;;;;;;19.65;11.13;;;;;;;11.23;33.97;91686.69;5012772;28;20502;-62
2022/03/12 09:10:11;;;;;;;64.03;38.15;;;;;;;8.14;36.67;91689.22;5012947;28;20042;-62
2022/03/12 09:12:41;;;;;;;11.43;7.97;;;;;;;4.16;42.39;91692.44;5010006;28;20033;-62
2022/03/12 09:15:09;;;;;;;45.28;23.55;;;;;;;0.13;49.72;91696.84;5010373;28;20044;-62
2022/03/12 09:17:35;;;;;;;31.83;16.48;;;;;;;-1.23;54.80;91698.38;5012898;28;20419;-61
2022/03/12 09:20:02;;;;;;;34.85;17.10;;;;;;;0.54;53.62;91698.56;5013203;28;20129;-62
2022/03/12 09:22:27;;;;;;;16.55;8.90;;;;;;;1.33;52.12;91703.28;5012518;28;20040;-68
2022/03/12 09:24:53;;;;;;;11.25;7.95;;;;;;;1.43;50.52;91706.91;5012775;28;20038;-62
2022/03/12 09:27:18;;;;;;;10.20;6.47;;;;;;;-0.10;52.46;91702.06;5012337;28;20041;-62
2022/03/12 09:29:44;;;;;;;14.65;8.55;;;;;;;0.84;53.32;91698.41;5010224;28;20500;-63
2022/03/12 09:32:09;;;;;;;17.15;9.50;;;;;;;2.96;49.79;91696.16;5012476;28;20490;-62
2022/03/12 09:34:37;;;;;;;10.50;6.72;;;;;;;1.82;49.42;91693.94;4995383;28;20049;-62
2022/03/12 09:37:04;;;;;;;18.73;12.45;;;;;;;0.10;51.60;91697.31;5012346;28;20496;-62
2022/03/12 09:39:30;;;;;;;16.67;9.73;;;;;;;3.87;48.30;91696.41;5015339;28;20443;-62
2022/03/12 09:41:55;;;;;;;104.47;54.47;;;;;;;3.55;45.85;91696.34;5012128;28;20037;-62
2022/03/12 09:44:21;;;;;;;43.25;23.20;;;;;;;-0.32;53.04;91702.59;5010546;28;20033;-63
2022/03/12 09:46:46;;;;;;;47.90;28.75;;;;;;;-1.73;54.10;91715.97;5011757;28;20434;-61
2022/03/12 09:49:12;;;;;;;26.08;16.55;;;;;;;-1.98;57.69;91707.38;5011432;28;20026;-61
2022/03/12 09:51:38;;;;;;;21.20;12.48;;;;;;;-1.81;60.67;91711.03;5011422;28;20037;-62
2022/03/12 09:54:04;;;;;;;10.40;7.60;;;;;;;-2.44;63.17;91711.13;5010961;28;20042;-63
2022/03/12 09:56:30;;;;;;;38.20;16.63;;;;;;;-2.50;68.05;91706.78;5009817;28;20046;-62
2022/03/12 09:58:56;;;;;;;24.05;14.38;;;;;;;-1.59;66.97;91717.41;5011592;28;20086;-62
2022/03/12 10:01:22;;;;;;;16.67;9.55;;;;;;;-1.90;64.32;91725.34;5011592;28;20530;-63
2022/03/12 10:03:48;;;;;;;14.25;8.07;;;;;;;-1.47;63.20;91724.53;5011020;28;20057;-63
2022/03/12 10:06:16;;;;;;;13.75;7.40;;;;;;;-1.30;58.92;91725.56;5017608;28;20156;-60
2022/03/12 10:08:45;;;;;;;13.35;7.90;;;;;;;-1.46;59.50;91724.31;5016005;28;20472;-64
2022/03/12 10:11:11;;;;;;;16.05;10.40;;;;;;;-1.55;59.17;91725.63;5012345;28;20076;-61
2022/03/12 10:13:36;;;;;;;10.40;6.10;;;;;;;1.66;54.64;91720.94;5016391;28;20499;-62
2022/03/12 10:16:03;;;;;;;21.88;13.45;;;;;;;4.01;46.53;91704.69;5011881;28;20163;-63
2022/03/12 10:18:28;;;;;;;15.77;12.10;;;;;;;2.99;48.70;91706.19;5011296;28;20041;-61
2022/03/12 10:20:57;;;;;;;9.40;6.85;;;;;;;3.13;48.05;91707.41;5011744;28;20452;-62
2022/03/12 10:23:23;;;;;;;17.40;8.15;;;;;;;3.78;46.29;91706.56;5012048;28;20507;-61
2022/03/12 10:25:50;;;;;;;8.75;5.78;;;;;;;4.22;46.96;91701.19;5011934;28;20077;-62
2022/03/12 10:28:15;;;;;;;24.13;11.02;;;;;;;3.98;45.85;91699.94;5011853;28;20041;-62
2022/03/12 10:30:41;;;;;;;21.70;9.95;;;;;;;1.54;49.75;91702.63;5011854;28;20052;-62
2022/03/12 10:33:07;;;;;;;13.38;7.40;;;;;;;0.24;53.00;91690.03;5011925;28;20100;-61
2022/03/12 10:35:36;;;;;;;12.27;7.53;;;;;;;-1.24;54.78;91690.78;5011767;28;20060;-62
2022/03/12 10:38:03;;;;;;;21.23;12.02;;;;;;;-2.54;58.08;91695.16;5012105;28;20042;-61
2022/03/12 10:40:30;;;;;;;10.48;6.40;;;;;;;-2.55;61.13;91696.19;5011680;28;20042;-62
2022/03/12 10:43:02;;;;;;;12.45;6.88;;;;;;;-2.61;62.11;91692.63;5011919;28;20037;-62
2022/03/12 10:45:30;;;;;;;15.23;7.82;;;;;;;-3.36;60.13;91696.81;5012058;28;20088;-62
2022/03/12 10:47:58;;;;;;;10.80;6.85;;;;;;;-3.54;61.46;91692.28;5011758;28;20041;-62
2022/03/12 10:50:38;;;;;;;17.67;13.10;;;;;;;-3.30;61.51;91690.00;5011472;28;20064;-62
2022/03/12 10:53:08;;;;;;;9.38;6.68;;;;;;;-0.32;57.57;91686.94;5011679;28;20046;-62
2022/03/12 10:55:40;;;;;;;10.32;6.78;;;;;;;2.01;51.78;91682.19;5011515;28;20045;-62
2022/03/12 10:58:06;;;;;;;14.20;9.05;;;;;;;5.10;44.92;91681.22;5011403;28;20042;-62
2022/03/12 11:00:37;;;;;;;12.18;7.25;;;;;;;7.17;39.45;91683.56;5011472;28;20034;-63
2022/03/12 11:03:03;;;;;;;8.38;6.03;;;;;;;7.61;37.49;91680.25;5011422;28;20042;-63
2022/03/12 11:05:34;;;;;;;11.32;6.80;;;;;;;9.62;34.55;91683.44;5010788;28;20149;-63
2022/03/12 11:08:33;;;;;;;11.75;7.93;;;;;;;11.20;34.32;91683.81;5011465;28;20030;-63
2022/03/12 11:11:13;;;;;;;19.55;13.65;;;;;;;4.88;39.72;91685.81;5011296;28;20042;-62
2022/03/12 11:13:49;;;;;;;7.03;4.72;;;;;;;1.12;44.50;91694.25;5011329;28;20046;-62
2022/03/12 11:16:18;;;;;;;13.73;6.32;;;;;;;0.37;46.50;91689.03;5011312;28;20487;-62
2022/03/12 11:18:53;;;;;;;9.10;5.40;;;;;;;4.93;40.84;91685.88;5011255;28;20038;-63